Howey In The Hills, Florida
Current Conditions -  °F | °C
As of 5:53 AM on Monday 22 Dec 2014 (Local Time) from KLEE Reporting Station
Haze Haze  
Wind Chill: 65°   Ceiling: 300
Heat Index: 65°   Visibility: 4mi
Dew Point: 64°   Wind: 6mph
Humidity: 97%   Direction: 120°ESE
Pressure: 30.01"   Gusts: NA
Location:  28.72°N, 81.77°W
Report Text: KLEE 221053Z AUTO 12005KT 4SM BR OVC003 18/18 A3001 RMK AO2 SLP159 T01830178
Loading
Personal Weather Stations






























Interactive Weather Map New forecast layout! Learn more

10-Day Weather Forecast

Advertisements
Track Severe Weather on mobile